Fair Acres, Pennsylvania
Current Conditions -  °F | °C
As of 2:56 PM on Friday 24 Oct 2014 (Local Time) from KCXY Reporting Station
Clear Clear  
Wind Chill: 67°   Ceiling: Unl
Heat Index: 67°   Visibility: 10mi
Dew Point: 31°   Wind: 12mph
Humidity: 26%   Direction: 310°NW
Pressure: 29.87"   Gusts: 22mph
Location:  40.2034°N, 76.87°W
Report Text: KCXY 241856Z 31010G19KT 10SM CLR 19/M01 A2987 RMK AO2 SLP116 T01941006
Loading
Personal Weather Stations






























Interactive Weather Map
Tropical Storm Tracking
New forecast layout! Learn more

10-Day Weather Forecast

Advertisements
Track Severe Weather on mobile